createdAt,value
2024-01-19T00:03:41.767Z,26
2024-01-19T00:14:41.797Z,27
2024-01-19T00:30:41.774Z,28
2024-01-19T00:36:31.538Z,24
2024-01-19T00:41:41.586Z,23
2024-01-19T00:46:41.792Z,22
2024-01-19T00:52:31.315Z,23
2024-01-19T00:57:31.476Z,23
2024-01-19T01:02:41.654Z,24
2024-01-19T01:07:41.727Z,24
2024-01-19T01:12:41.758Z,25
2024-01-19T01:17:41.904Z,25
2024-01-19T01:23:31.660Z,22
2024-01-19T01:28:41.747Z,22
2024-01-19T01:34:31.334Z,22
2024-01-19T01:39:41.814Z,23
2024-01-19T01:45:31.485Z,22
2024-01-19T01:50:31.540Z,21
2024-01-19T01:55:41.749Z,22
2024-01-19T02:01:31.511Z,23
2024-01-19T02:06:41.756Z,24
2024-01-19T02:11:41.812Z,24
2024-01-19T02:16:41.737Z,23
2024-01-19T02:21:41.834Z,23
2024-01-19T02:27:31.280Z,23
2024-01-19T02:32:31.491Z,20
2024-01-19T02:37:41.717Z,20
2024-01-19T02:43:31.465Z,18
2024-01-19T02:48:41.617Z,16
2024-01-19T02:58:41.557Z,16
2024-01-19T03:03:41.565Z,16
2024-01-19T03:09:31.444Z,15
2024-01-19T03:14:41.758Z,15
2024-01-19T03:19:41.874Z,15
2024-01-19T03:24:50.978Z,17
2024-01-19T03:30:31.408Z,18
2024-01-19T03:35:31.485Z,18
2024-01-19T03:40:41.746Z,20
2024-01-19T03:45:41.773Z,20
2024-01-19T03:51:31.422Z,18
2024-01-19T03:56:41.762Z,18
2024-01-19T04:02:31.445Z,18
2024-01-19T04:07:41.745Z,18
2024-01-19T04:13:31.427Z,18
2024-01-19T04:18:41.689Z,16
2024-01-19T04:23:41.730Z,16
2024-01-19T04:28:41.739Z,16
2024-01-19T04:33:41.865Z,16
2024-01-19T04:39:31.500Z,18
2024-01-19T04:44:41.823Z,17
2024-01-19T04:50:31.211Z,17
2024-01-19T04:55:31.213Z,17
2024-01-19T05:00:31.217Z,18
2024-01-19T05:05:31.330Z,18
2024-01-19T05:10:41.488Z,19
2024-01-19T05:15:41.536Z,19
2024-01-19T05:21:31.382Z,21
2024-01-19T05:26:31.243Z,17
2024-01-19T05:31:41.480Z,17
2024-01-19T05:36:41.521Z,18
2024-01-19T05:42:31.170Z,17
2024-01-19T05:47:31.253Z,15
2024-01-19T05:52:31.261Z,16
2024-01-19T05:57:31.410Z,16
2024-01-19T06:02:41.754Z,15
2024-01-19T06:07:41.691Z,15
2024-01-19T06:12:41.816Z,15
2024-01-19T06:18:31.729Z,18
2024-01-19T06:23:41.764Z,15
2024-01-19T06:29:31.549Z,14
2024-01-19T06:34:41.708Z,14
2024-01-19T06:39:50.919Z,16
2024-01-19T06:45:31.412Z,13
2024-01-19T06:50:41.737Z,13
2024-01-19T06:56:31.534Z,15
2024-01-19T07:01:41.717Z,14
2024-01-19T07:07:31.275Z,13
2024-01-19T07:12:31.360Z,13
2024-01-19T07:17:31.411Z,12
2024-01-19T07:22:31.397Z,12
2024-01-19T07:27:41.658Z,14
2024-01-19T07:32:56.962Z,15
2024-01-19T07:38:31.484Z,14
2024-01-19T07:43:41.667Z,12
2024-01-19T07:54:31.367Z,14
2024-01-19T07:59:31.448Z,13
2024-01-19T08:04:41.681Z,12
2024-01-19T08:10:31.365Z,15
2024-01-19T08:15:31.506Z,13
2024-01-19T08:20:41.725Z,12
2024-01-19T08:26:31.422Z,14
2024-01-19T08:31:41.626Z,13
2024-01-19T08:36:41.801Z,12
2024-01-19T08:42:31.361Z,14
2024-01-19T08:47:31.471Z,24
2024-01-19T08:52:41.631Z,13
2024-01-19T08:57:41.677Z,14
2024-01-19T09:03:31.416Z,13
2024-01-19T09:08:31.552Z,13
2024-01-19T09:13:41.462Z,15
2024-01-19T09:18:41.837Z,20
2024-01-19T09:24:31.356Z,15
2024-01-19T09:29:41.682Z,14
2024-01-19T09:34:41.751Z,14
2024-01-19T09:40:31.378Z,15
2024-01-19T09:45:41.629Z,14
2024-01-19T09:51:31.212Z,15
2024-01-19T09:56:41.875Z,16
2024-01-19T10:02:31.303Z,15
2024-01-19T10:07:41.612Z,18
2024-01-19T10:12:41.641Z,17
2024-01-19T10:18:31.457Z,17
2024-01-19T10:23:31.414Z,16
2024-01-19T10:28:41.715Z,17
2024-01-19T10:34:31.548Z,18
2024-01-19T10:39:41.380Z,19
2024-01-19T10:44:41.643Z,18
2024-01-19T10:50:31.228Z,16
2024-01-19T10:55:31.181Z,16
2024-01-19T11:00:31.222Z,15
2024-01-19T11:05:41.533Z,15
2024-01-19T11:10:41.407Z,16
2024-01-19T11:15:41.431Z,14
2024-01-19T11:20:41.541Z,14
2024-01-19T11:26:31.186Z,14
2024-01-19T11:31:41.468Z,16
2024-01-19T11:36:41.724Z,18
2024-01-19T11:42:31.143Z,15
2024-01-19T11:47:31.349Z,16
2024-01-19T11:52:41.435Z,16
2024-01-19T11:58:31.522Z,17
2024-01-19T12:03:31.407Z,16
2024-01-19T12:08:42.856Z,16
2024-01-19T12:13:48.505Z,16
2024-01-19T12:18:51.861Z,16
2024-01-19T12:24:31.316Z,16
2024-01-19T12:29:31.347Z,17
2024-01-19T12:34:41.865Z,17
2024-01-19T12:39:41.678Z,16
2024-01-19T12:50:31.438Z,13
2024-01-19T12:55:41.469Z,14
2024-01-19T13:00:41.637Z,14
2024-01-19T13:06:31.501Z,15
2024-01-19T13:11:41.611Z,16
2024-01-19T13:16:41.622Z,15
2024-01-19T13:22:31.330Z,14
2024-01-19T13:27:31.332Z,14
2024-01-19T13:32:41.645Z,14
2024-01-19T13:37:41.668Z,13
2024-01-19T13:43:31.348Z,14
2024-01-19T13:48:31.351Z,12
2024-01-19T13:53:41.619Z,13
2024-01-19T13:59:31.311Z,13
2024-01-19T14:04:41.618Z,13
2024-01-19T14:10:31.247Z,13
2024-01-19T14:15:49.052Z,14
2024-01-19T14:20:41.581Z,14
2024-01-19T14:25:41.629Z,15
2024-01-19T14:31:41.476Z,14
2024-01-19T14:36:41.646Z,14
2024-01-19T14:42:31.172Z,14
2024-01-19T14:47:41.575Z,15
2024-01-19T14:53:32.887Z,15
2024-01-19T14:58:41.716Z,14
2024-01-19T15:04:31.504Z,13
2024-01-19T15:09:41.642Z,14
2024-01-19T15:14:41.750Z,14
2024-01-19T15:20:31.355Z,14
2024-01-19T15:31:31.486Z,14
2024-01-19T15:36:41.616Z,14
2024-01-19T15:42:31.399Z,21
2024-01-19T15:47:41.525Z,20
2024-01-19T15:52:41.525Z,21
2024-01-19T15:57:41.561Z,23
2024-01-19T16:02:41.581Z,18
2024-01-19T16:07:41.666Z,18
2024-01-19T16:12:41.780Z,19
2024-01-19T16:18:31.071Z,16
2024-01-19T16:23:31.283Z,16
2024-01-19T16:28:31.289Z,16
2024-01-19T16:33:31.324Z,17
2024-01-19T16:38:41.621Z,17
2024-01-19T16:44:31.282Z,17
2024-01-19T16:49:31.372Z,16
2024-01-19T16:54:41.540Z,22
2024-01-19T16:59:41.647Z,19
2024-01-19T17:05:31.123Z,21
2024-01-19T17:10:41.385Z,20
2024-01-19T17:16:31.197Z,21
2024-01-19T17:21:41.379Z,25
2024-01-19T17:26:41.382Z,24
2024-01-19T17:31:41.504Z,24
2024-01-19T17:37:31.227Z,22
2024-01-19T17:42:41.311Z,24
2024-01-19T17:47:41.484Z,20
2024-01-19T17:53:31.025Z,18
2024-01-19T17:58:31.204Z,19
2024-01-19T18:03:49.818Z,19
2024-01-19T18:09:31.217Z,23
2024-01-19T18:14:31.256Z,22
2024-01-19T18:19:31.268Z,21
2024-01-19T18:24:41.539Z,21
2024-01-19T18:29:41.702Z,21
2024-01-19T18:35:31.041Z,29
2024-01-19T18:40:31.320Z,32
2024-01-19T18:45:41.552Z,38
2024-01-19T18:51:31.313Z,30
2024-01-19T18:56:41.342Z,30
2024-01-19T19:01:41.589Z,27
2024-01-19T19:06:41.605Z,28
2024-01-19T19:11:41.526Z,23
2024-01-19T19:17:31.340Z,22
2024-01-19T19:22:41.711Z,27
2024-01-19T19:28:31.293Z,25
2024-01-19T19:33:41.641Z,26
2024-01-19T19:44:31.352Z,28
2024-01-19T19:49:41.427Z,32
2024-01-19T19:55:31.346Z,26
2024-01-19T20:00:41.351Z,23
2024-01-19T20:06:31.271Z,24
2024-01-19T20:11:31.433Z,24
2024-01-19T20:16:41.528Z,26
2024-01-19T20:21:41.514Z,24
2024-01-19T20:27:31.286Z,26
2024-01-19T20:32:41.546Z,25
2024-01-19T20:38:31.268Z,31
2024-01-19T20:43:31.224Z,47
2024-01-19T20:48:41.533Z,28
2024-01-19T20:54:31.216Z,50
2024-01-19T20:59:41.267Z,39
2024-01-19T21:04:42.354Z,36
2024-01-19T21:09:42.387Z,33
2024-01-19T21:15:31.095Z,28
2024-01-19T21:20:31.248Z,33
2024-01-19T21:31:31.364Z,32
2024-01-19T21:36:41.447Z,28
2024-01-19T21:42:31.200Z,28
2024-01-19T21:47:41.532Z,26
2024-01-19T21:53:31.018Z,27
2024-01-19T21:58:31.261Z,27
2024-01-19T22:03:41.271Z,28
2024-01-19T22:08:41.484Z,28
2024-01-19T22:14:30.929Z,27
2024-01-19T22:19:31.176Z,24
2024-01-19T22:24:41.238Z,22
2024-01-19T22:34:41.692Z,25
2024-01-19T22:40:30.957Z,22
2024-01-19T22:45:41.248Z,23
2024-01-19T22:50:41.460Z,22
2024-01-19T22:55:41.519Z,22
2024-01-19T23:01:31.065Z,24
2024-01-19T23:06:41.325Z,23
2024-01-19T23:11:41.592Z,21
2024-01-19T23:17:30.983Z,21
2024-01-19T23:22:30.991Z,18
2024-01-19T23:27:31.012Z,18
2024-01-19T23:32:41.281Z,20
2024-01-19T23:37:41.271Z,21
2024-01-19T23:43:30.955Z,21
2024-01-19T23:48:41.281Z,21
2024-01-19T23:53:41.242Z,20
2024-01-19T23:59:32.869Z,21
